sensor_id;sensor_type;location;lat;lon;timestamp;P1;durP1;ratioP1;P2;durP2;ratioP2
76171;SDS011;64929;51.178;4.138;2023-02-13T00:00:03;33.28;;;15.95;;
76171;SDS011;64929;51.178;4.138;2023-02-13T00:02:30;35.05;;;14.32;;
76171;SDS011;64929;51.178;4.138;2023-02-13T00:04:56;29.25;;;14.48;;
76171;SDS011;64929;51.178;4.138;2023-02-13T00:07:21;29.45;;;14.90;;
76171;SDS011;64929;51.178;4.138;2023-02-13T00:09:47;33.33;;;15.02;;
76171;SDS011;64929;51.178;4.138;2023-02-13T00:12:12;31.27;;;14.68;;
76171;SDS011;64929;51.178;4.138;2023-02-13T00:14:38;29.70;;;13.77;;
76171;SDS011;64929;51.178;4.138;2023-02-13T00:17:04;31.30;;;13.95;;
76171;SDS011;64929;51.178;4.138;2023-02-13T00:19:30;33.72;;;15.40;;
76171;SDS011;64929;51.178;4.138;2023-02-13T00:21:55;34.53;;;14.80;;
76171;SDS011;64929;51.178;4.138;2023-02-13T00:24:21;32.83;;;14.45;;
76171;SDS011;64929;51.178;4.138;2023-02-13T00:26:47;34.30;;;15.52;;
76171;SDS011;64929;51.178;4.138;2023-02-13T00:29:13;32.17;;;14.32;;
76171;SDS011;64929;51.178;4.138;2023-02-13T00:31:39;32.03;;;14.00;;
76171;SDS011;64929;51.178;4.138;2023-02-13T00:34:04;35.75;;;14.23;;
76171;SDS011;64929;51.178;4.138;2023-02-13T00:36:30;32.03;;;13.93;;
76171;SDS011;64929;51.178;4.138;2023-02-13T00:38:56;31.33;;;14.70;;
76171;SDS011;64929;51.178;4.138;2023-02-13T00:41:21;34.20;;;15.15;;
76171;SDS011;64929;51.178;4.138;2023-02-13T00:43:47;32.67;;;14.55;;
76171;SDS011;64929;51.178;4.138;2023-02-13T00:46:14;32.75;;;14.10;;
76171;SDS011;64929;51.178;4.138;2023-02-13T00:48:41;31.15;;;14.70;;
76171;SDS011;64929;51.178;4.138;2023-02-13T00:51:07;34.22;;;14.65;;
76171;SDS011;64929;51.178;4.138;2023-02-13T00:53:33;38.10;;;15.35;;
76171;SDS011;64929;51.178;4.138;2023-02-13T00:56:00;32.60;;;14.20;;
76171;SDS011;64929;51.178;4.138;2023-02-13T00:58:26;37.50;;;15.18;;
76171;SDS011;64929;51.178;4.138;2023-02-13T01:00:52;37.63;;;15.57;;
76171;SDS011;64929;51.178;4.138;2023-02-13T01:03:19;33.90;;;15.55;;
76171;SDS011;64929;51.178;4.138;2023-02-13T01:05:46;37.30;;;15.15;;
76171;SDS011;64929;51.178;4.138;2023-02-13T01:08:13;39.65;;;15.80;;
76171;SDS011;64929;51.178;4.138;2023-02-13T01:10:40;35.97;;;14.73;;
76171;SDS011;64929;51.178;4.138;2023-02-13T01:13:06;33.30;;;14.95;;
76171;SDS011;64929;51.178;4.138;2023-02-13T01:15:33;33.53;;;14.57;;
76171;SDS011;64929;51.178;4.138;2023-02-13T01:17:59;32.85;;;14.88;;
76171;SDS011;64929;51.178;4.138;2023-02-13T01:20:25;34.10;;;14.63;;
76171;SDS011;64929;51.178;4.138;2023-02-13T01:22:51;33.47;;;14.00;;
76171;SDS011;64929;51.178;4.138;2023-02-13T01:25:17;35.20;;;14.73;;
76171;SDS011;64929;51.178;4.138;2023-02-13T01:27:43;31.75;;;13.85;;
76171;SDS011;64929;51.178;4.138;2023-02-13T01:30:10;34.60;;;15.00;;
76171;SDS011;64929;51.178;4.138;2023-02-13T01:32:41;32.15;;;14.63;;
76171;SDS011;64929;51.178;4.138;2023-02-13T01:37:34;32.17;;;12.77;;
76171;SDS011;64929;51.178;4.138;2023-02-13T01:40:00;31.00;;;14.13;;
76171;SDS011;64929;51.178;4.138;2023-02-13T01:42:27;31.95;;;13.45;;
76171;SDS011;64929;51.178;4.138;2023-02-13T01:44:55;33.22;;;13.77;;
76171;SDS011;64929;51.178;4.138;2023-02-13T01:50:03;32.13;;;14.48;;
76171;SDS011;64929;51.178;4.138;2023-02-13T01:52:36;31.42;;;13.95;;
76171;SDS011;64929;51.178;4.138;2023-02-13T01:55:05;29.03;;;13.00;;
76171;SDS011;64929;51.178;4.138;2023-02-13T01:57:32;31.83;;;14.55;;
76171;SDS011;64929;51.178;4.138;2023-02-13T02:00:05;31.13;;;14.18;;
76171;SDS011;64929;51.178;4.138;2023-02-13T02:02:38;33.58;;;13.82;;
76171;SDS011;64929;51.178;4.138;2023-02-13T02:05:08;30.52;;;13.13;;
76171;SDS011;64929;51.178;4.138;2023-02-13T02:07:35;38.83;;;15.70;;
76171;SDS011;64929;51.178;4.138;2023-02-13T02:10:15;33.72;;;15.10;;
76171;SDS011;64929;51.178;4.138;2023-02-13T02:12:46;36.92;;;15.20;;
76171;SDS011;64929;51.178;4.138;2023-02-13T02:15:17;33.90;;;15.57;;
76171;SDS011;64929;51.178;4.138;2023-02-13T02:17:43;37.10;;;14.70;;
76171;SDS011;64929;51.178;4.138;2023-02-13T02:31:40;30.17;;;13.77;;
76171;SDS011;64929;51.178;4.138;2023-02-13T02:39:33;34.92;;;14.57;;
76171;SDS011;64929;51.178;4.138;2023-02-13T02:50:34;32.92;;;14.25;;
76171;SDS011;64929;51.178;4.138;2023-02-13T02:58:53;30.55;;;13.90;;
76171;SDS011;64929;51.178;4.138;2023-02-13T03:01:57;34.50;;;14.10;;
76171;SDS011;64929;51.178;4.138;2023-02-13T03:04:43;35.28;;;13.93;;
76171;SDS011;64929;51.178;4.138;2023-02-13T03:07:30;35.95;;;14.57;;
76171;SDS011;64929;51.178;4.138;2023-02-13T03:09:58;34.97;;;14.32;;
76171;SDS011;64929;51.178;4.138;2023-02-13T03:15:33;34.17;;;13.70;;
76171;SDS011;64929;51.178;4.138;2023-02-13T03:18:21;33.33;;;13.82;;
76171;SDS011;64929;51.178;4.138;2023-02-13T03:21:16;33.33;;;14.55;;
76171;SDS011;64929;51.178;4.138;2023-02-13T03:24:21;39.88;;;14.93;;
76171;SDS011;64929;51.178;4.138;2023-02-13T03:27:50;35.50;;;14.18;;
76171;SDS011;64929;51.178;4.138;2023-02-13T03:36:21;33.05;;;12.50;;
76171;SDS011;64929;51.178;4.138;2023-02-13T03:42:00;28.77;;;13.13;;
76171;SDS011;64929;51.178;4.138;2023-02-13T03:47:35;34.75;;;15.13;;
76171;SDS011;64929;51.178;4.138;2023-02-13T03:50:03;31.48;;;12.35;;
76171;SDS011;64929;51.178;4.138;2023-02-13T03:52:31;36.72;;;14.48;;
76171;SDS011;64929;51.178;4.138;2023-02-13T03:58:07;35.45;;;13.27;;
76171;SDS011;64929;51.178;4.138;2023-02-13T04:00:56;36.72;;;15.27;;
76171;SDS011;64929;51.178;4.138;2023-02-13T04:03:26;37.85;;;14.27;;
76171;SDS011;64929;51.178;4.138;2023-02-13T04:06:01;35.35;;;14.00;;
76171;SDS011;64929;51.178;4.138;2023-02-13T04:08:31;35.03;;;14.70;;
76171;SDS011;64929;51.178;4.138;2023-02-13T04:10:58;37.20;;;13.88;;
76171;SDS011;64929;51.178;4.138;2023-02-13T04:16:35;46.05;;;14.88;;
76171;SDS011;64929;51.178;4.138;2023-02-13T04:19:05;33.70;;;13.82;;
76171;SDS011;64929;51.178;4.138;2023-02-13T04:21:35;31.35;;;13.95;;
76171;SDS011;64929;51.178;4.138;2023-02-13T04:24:02;34.20;;;15.52;;
76171;SDS011;64929;51.178;4.138;2023-02-13T04:26:38;33.70;;;14.43;;
76171;SDS011;64929;51.178;4.138;2023-02-13T04:29:06;35.95;;;13.75;;
76171;SDS011;64929;51.178;4.138;2023-02-13T04:31:32;36.40;;;14.82;;
76171;SDS011;64929;51.178;4.138;2023-02-13T04:33:58;36.10;;;14.73;;
76171;SDS011;64929;51.178;4.138;2023-02-13T04:36:24;30.05;;;13.57;;
76171;SDS011;64929;51.178;4.138;2023-02-13T04:38:50;31.48;;;14.23;;
76171;SDS011;64929;51.178;4.138;2023-02-13T04:41:16;34.08;;;13.98;;
76171;SDS011;64929;51.178;4.138;2023-02-13T04:43:42;31.55;;;13.60;;
76171;SDS011;64929;51.178;4.138;2023-02-13T04:46:08;33.88;;;13.48;;
76171;SDS011;64929;51.178;4.138;2023-02-13T04:48:33;37.55;;;13.63;;
76171;SDS011;64929;51.178;4.138;2023-02-13T04:50:59;30.17;;;13.80;;
76171;SDS011;64929;51.178;4.138;2023-02-13T04:53:24;33.78;;;14.13;;
76171;SDS011;64929;51.178;4.138;2023-02-13T04:55:50;32.22;;;12.43;;
76171;SDS011;64929;51.178;4.138;2023-02-13T04:58:16;27.65;;;12.75;;
76171;SDS011;64929;51.178;4.138;2023-02-13T05:00:42;25.58;;;12.10;;
76171;SDS011;64929;51.178;4.138;2023-02-13T05:03:09;35.13;;;14.27;;
76171;SDS011;64929;51.178;4.138;2023-02-13T05:05:36;27.48;;;12.02;;
76171;SDS011;64929;51.178;4.138;2023-02-13T05:08:03;27.67;;;12.35;;
76171;SDS011;64929;51.178;4.138;2023-02-13T05:10:30;31.40;;;13.90;;
76171;SDS011;64929;51.178;4.138;2023-02-13T05:12:55;29.73;;;12.98;;
76171;SDS011;64929;51.178;4.138;2023-02-13T05:15:22;31.45;;;13.55;;
76171;SDS011;64929;51.178;4.138;2023-02-13T05:17:48;31.65;;;12.82;;
76171;SDS011;64929;51.178;4.138;2023-02-13T05:20:14;37.35;;;12.98;;
76171;SDS011;64929;51.178;4.138;2023-02-13T05:22:47;32.50;;;13.77;;
76171;SDS011;64929;51.178;4.138;2023-02-13T05:25:33;31.20;;;12.50;;
76171;SDS011;64929;51.178;4.138;2023-02-13T05:28:00;31.15;;;13.65;;
76171;SDS011;64929;51.178;4.138;2023-02-13T05:30:26;30.70;;;12.05;;
76171;SDS011;64929;51.178;4.138;2023-02-13T05:32:52;29.95;;;13.25;;
76171;SDS011;64929;51.178;4.138;2023-02-13T05:35:19;32.85;;;13.52;;
76171;SDS011;64929;51.178;4.138;2023-02-13T05:37:49;39.08;;;15.13;;
76171;SDS011;64929;51.178;4.138;2023-02-13T05:40:14;35.13;;;14.55;;
76171;SDS011;64929;51.178;4.138;2023-02-13T05:42:40;35.33;;;15.50;;
76171;SDS011;64929;51.178;4.138;2023-02-13T05:45:07;37.45;;;15.88;;
76171;SDS011;64929;51.178;4.138;2023-02-13T05:47:34;36.33;;;15.18;;
76171;SDS011;64929;51.178;4.138;2023-02-13T05:50:00;41.25;;;16.50;;
76171;SDS011;64929;51.178;4.138;2023-02-13T05:52:26;41.33;;;16.75;;
76171;SDS011;64929;51.178;4.138;2023-02-13T05:54:51;34.20;;;15.43;;
76171;SDS011;64929;51.178;4.138;2023-02-13T05:57:17;45.72;;;16.75;;
76171;SDS011;64929;51.178;4.138;2023-02-13T05:59:43;43.78;;;15.82;;
76171;SDS011;64929;51.178;4.138;2023-02-13T06:02:09;43.92;;;15.85;;
76171;SDS011;64929;51.178;4.138;2023-02-13T06:04:35;40.55;;;16.55;;
76171;SDS011;64929;51.178;4.138;2023-02-13T06:07:00;40.72;;;16.00;;
76171;SDS011;64929;51.178;4.138;2023-02-13T06:09:26;40.45;;;15.60;;
76171;SDS011;64929;51.178;4.138;2023-02-13T06:11:52;43.67;;;15.82;;
76171;SDS011;64929;51.178;4.138;2023-02-13T06:14:17;38.05;;;16.67;;
76171;SDS011;64929;51.178;4.138;2023-02-13T06:16:43;37.42;;;14.35;;
76171;SDS011;64929;51.178;4.138;2023-02-13T06:19:09;31.95;;;13.73;;
76171;SDS011;64929;51.178;4.138;2023-02-13T06:21:34;33.92;;;15.00;;
76171;SDS011;64929;51.178;4.138;2023-02-13T06:24:05;56.83;;;13.07;;
76171;SDS011;64929;51.178;4.138;2023-02-13T06:26:31;35.75;;;13.35;;
76171;SDS011;64929;51.178;4.138;2023-02-13T06:28:58;33.25;;;11.32;;
76171;SDS011;64929;51.178;4.138;2023-02-13T06:31:24;27.90;;;12.02;;
76171;SDS011;64929;51.178;4.138;2023-02-13T06:33:49;39.58;;;11.63;;
76171;SDS011;64929;51.178;4.138;2023-02-13T06:36:15;27.98;;;12.40;;
76171;SDS011;64929;51.178;4.138;2023-02-13T06:38:40;63.63;;;11.45;;
76171;SDS011;64929;51.178;4.138;2023-02-13T06:41:07;43.25;;;11.45;;
76171;SDS011;64929;51.178;4.138;2023-02-13T06:43:34;28.70;;;9.95;;
76171;SDS011;64929;51.178;4.138;2023-02-13T06:46:03;29.50;;;10.27;;
76171;SDS011;64929;51.178;4.138;2023-02-13T06:48:29;23.13;;;9.82;;
76171;SDS011;64929;51.178;4.138;2023-02-13T06:50:55;22.10;;;10.52;;
76171;SDS011;64929;51.178;4.138;2023-02-13T06:53:20;35.08;;;11.05;;
76171;SDS011;64929;51.178;4.138;2023-02-13T06:55:49;22.88;;;10.27;;
76171;SDS011;64929;51.178;4.138;2023-02-13T06:58:19;27.08;;;12.77;;
76171;SDS011;64929;51.178;4.138;2023-02-13T07:00:45;25.85;;;11.65;;
76171;SDS011;64929;51.178;4.138;2023-02-13T07:03:11;23.67;;;10.48;;
76171;SDS011;64929;51.178;4.138;2023-02-13T07:05:41;32.88;;;10.50;;
76171;SDS011;64929;51.178;4.138;2023-02-13T07:08:08;21.90;;;10.70;;
76171;SDS011;64929;51.178;4.138;2023-02-13T07:10:38;33.70;;;10.82;;
76171;SDS011;64929;51.178;4.138;2023-02-13T07:13:05;29.15;;;12.18;;
76171;SDS011;64929;51.178;4.138;2023-02-13T07:15:31;34.38;;;11.55;;
76171;SDS011;64929;51.178;4.138;2023-02-13T07:17:58;27.13;;;11.70;;
76171;SDS011;64929;51.178;4.138;2023-02-13T07:20:24;26.67;;;12.02;;
76171;SDS011;64929;51.178;4.138;2023-02-13T07:22:50;47.33;;;11.68;;
76171;SDS011;64929;51.178;4.138;2023-02-13T07:25:16;24.08;;;11.98;;
76171;SDS011;64929;51.178;4.138;2023-02-13T07:27:43;32.03;;;11.55;;
76171;SDS011;64929;51.178;4.138;2023-02-13T07:30:09;30.00;;;11.45;;
76171;SDS011;64929;51.178;4.138;2023-02-13T07:32:35;21.13;;;10.48;;
76171;SDS011;64929;51.178;4.138;2023-02-13T07:35:01;31.13;;;11.65;;
76171;SDS011;64929;51.178;4.138;2023-02-13T07:37:27;28.13;;;12.20;;
76171;SDS011;64929;51.178;4.138;2023-02-13T07:39:54;26.38;;;11.70;;
76171;SDS011;64929;51.178;4.138;2023-02-13T07:42:19;33.50;;;12.20;;
76171;SDS011;64929;51.178;4.138;2023-02-13T07:44:46;27.38;;;12.90;;
76171;SDS011;64929;51.178;4.138;2023-02-13T07:47:11;26.85;;;12.18;;
76171;SDS011;64929;51.178;4.138;2023-02-13T07:49:37;25.73;;;12.15;;
76171;SDS011;64929;51.178;4.138;2023-02-13T07:52:03;27.50;;;12.73;;
76171;SDS011;64929;51.178;4.138;2023-02-13T07:54:29;29.33;;;11.88;;
76171;SDS011;64929;51.178;4.138;2023-02-13T07:56:55;27.73;;;12.20;;
76171;SDS011;64929;51.178;4.138;2023-02-13T07:59:22;26.92;;;12.27;;
76171;SDS011;64929;51.178;4.138;2023-02-13T08:01:47;30.73;;;13.60;;
76171;SDS011;64929;51.178;4.138;2023-02-13T08:04:13;26.52;;;11.68;;
76171;SDS011;64929;51.178;4.138;2023-02-13T08:06:39;25.08;;;12.13;;
76171;SDS011;64929;51.178;4.138;2023-02-13T08:09:05;26.67;;;13.02;;
76171;SDS011;64929;51.178;4.138;2023-02-13T08:11:51;23.77;;;11.82;;
76171;SDS011;64929;51.178;4.138;2023-02-13T08:14:24;25.17;;;12.20;;
76171;SDS011;64929;51.178;4.138;2023-02-13T08:16:51;22.80;;;12.30;;
76171;SDS011;64929;51.178;4.138;2023-02-13T08:19:18;23.45;;;10.43;;
76171;SDS011;64929;51.178;4.138;2023-02-13T08:21:44;21.90;;;10.30;;
76171;SDS011;64929;51.178;4.138;2023-02-13T08:24:10;25.90;;;11.65;;
76171;SDS011;64929;51.178;4.138;2023-02-13T08:26:37;22.70;;;11.27;;
76171;SDS011;64929;51.178;4.138;2023-02-13T08:29:03;25.23;;;11.55;;
76171;SDS011;64929;51.178;4.138;2023-02-13T08:31:29;24.17;;;11.32;;
76171;SDS011;64929;51.178;4.138;2023-02-13T08:33:55;32.30;;;11.68;;
76171;SDS011;64929;51.178;4.138;2023-02-13T08:36:22;22.52;;;10.23;;
76171;SDS011;64929;51.178;4.138;2023-02-13T08:38:48;26.13;;;11.45;;
76171;SDS011;64929;51.178;4.138;2023-02-13T08:41:14;24.02;;;11.30;;
76171;SDS011;64929;51.178;4.138;2023-02-13T08:43:42;24.88;;;12.15;;
76171;SDS011;64929;51.178;4.138;2023-02-13T08:46:08;23.55;;;11.95;;
76171;SDS011;64929;51.178;4.138;2023-02-13T08:48:33;25.50;;;12.23;;
76171;SDS011;64929;51.178;4.138;2023-02-13T08:50:59;27.30;;;11.43;;
76171;SDS011;64929;51.178;4.138;2023-02-13T08:53:29;24.75;;;10.57;;
76171;SDS011;64929;51.178;4.138;2023-02-13T08:55:55;26.63;;;11.20;;
76171;SDS011;64929;51.178;4.138;2023-02-13T08:58:22;22.88;;;10.48;;
76171;SDS011;64929;51.178;4.138;2023-02-13T09:00:48;26.45;;;11.23;;
76171;SDS011;64929;51.178;4.138;2023-02-13T09:03:13;21.25;;;11.13;;
76171;SDS011;64929;51.178;4.138;2023-02-13T09:05:40;23.20;;;11.27;;
76171;SDS011;64929;51.178;4.138;2023-02-13T09:08:06;24.40;;;11.23;;
76171;SDS011;64929;51.178;4.138;2023-02-13T09:10:35;21.33;;;10.88;;
76171;SDS011;64929;51.178;4.138;2023-02-13T09:13:01;24.85;;;11.48;;
76171;SDS011;64929;51.178;4.138;2023-02-13T09:15:27;26.13;;;11.73;;
76171;SDS011;64929;51.178;4.138;2023-02-13T09:17:53;24.58;;;11.02;;
76171;SDS011;64929;51.178;4.138;2023-02-13T09:20:19;21.83;;;10.13;;
76171;SDS011;64929;51.178;4.138;2023-02-13T09:22:45;22.35;;;10.35;;
76171;SDS011;64929;51.178;4.138;2023-02-13T09:25:10;25.52;;;10.82;;
76171;SDS011;64929;51.178;4.138;2023-02-13T09:27:36;25.17;;;10.23;;
76171;SDS011;64929;51.178;4.138;2023-02-13T09:30:08;21.70;;;9.10;;
76171;SDS011;64929;51.178;4.138;2023-02-13T09:32:35;24.02;;;10.00;;
76171;SDS011;64929;51.178;4.138;2023-02-13T09:35:02;23.42;;;10.23;;
76171;SDS011;64929;51.178;4.138;2023-02-13T09:37:28;23.90;;;10.70;;
76171;SDS011;64929;51.178;4.138;2023-02-13T09:39:54;21.90;;;9.80;;
76171;SDS011;64929;51.178;4.138;2023-02-13T09:42:23;16.55;;;9.15;;
76171;SDS011;64929;51.178;4.138;2023-02-13T09:44:53;19.77;;;9.35;;
76171;SDS011;64929;51.178;4.138;2023-02-13T09:50:02;24.58;;;10.77;;
76171;SDS011;64929;51.178;4.138;2023-02-13T09:52:32;22.80;;;10.88;;
76171;SDS011;64929;51.178;4.138;2023-02-13T09:55:00;19.17;;;8.80;;
76171;SDS011;64929;51.178;4.138;2023-02-13T09:57:27;19.63;;;9.70;;
76171;SDS011;64929;51.178;4.138;2023-02-13T10:02:58;23.02;;;9.00;;
76171;SDS011;64929;51.178;4.138;2023-02-13T10:08:38;20.10;;;9.85;;
76171;SDS011;64929;51.178;4.138;2023-02-13T10:16:35;20.85;;;9.25;;
76171;SDS011;64929;51.178;4.138;2023-02-13T10:19:14;17.15;;;8.38;;
76171;SDS011;64929;51.178;4.138;2023-02-13T10:21:42;17.35;;;8.05;;
76171;SDS011;64929;51.178;4.138;2023-02-13T10:26:52;19.30;;;7.95;;
76171;SDS011;64929;51.178;4.138;2023-02-13T10:29:23;17.02;;;8.13;;
76171;SDS011;64929;51.178;4.138;2023-02-13T10:32:17;14.18;;;7.80;;
76171;SDS011;64929;51.178;4.138;2023-02-13T10:34:48;19.50;;;8.02;;
76171;SDS011;64929;51.178;4.138;2023-02-13T10:37:18;17.20;;;8.50;;
76171;SDS011;64929;51.178;4.138;2023-02-13T10:39:47;14.23;;;7.60;;
76171;SDS011;64929;51.178;4.138;2023-02-13T10:42:21;16.63;;;7.82;;
76171;SDS011;64929;51.178;4.138;2023-02-13T10:53:10;13.07;;;7.05;;
76171;SDS011;64929;51.178;4.138;2023-02-13T10:58:21;14.93;;;7.75;;
76171;SDS011;64929;51.178;4.138;2023-02-13T11:04:10;13.88;;;6.38;;
76171;SDS011;64929;51.178;4.138;2023-02-13T11:06:43;14.90;;;7.37;;
76171;SDS011;64929;51.178;4.138;2023-02-13T11:09:24;16.02;;;7.38;;
76171;SDS011;64929;51.178;4.138;2023-02-13T11:11:51;12.07;;;6.60;;
76171;SDS011;64929;51.178;4.138;2023-02-13T11:14:19;14.70;;;7.03;;
76171;SDS011;64929;51.178;4.138;2023-02-13T11:24:26;12.65;;;6.57;;
76171;SDS011;64929;51.178;4.138;2023-02-13T11:26:57;13.07;;;7.22;;
76171;SDS011;64929;51.178;4.138;2023-02-13T11:29:33;14.60;;;7.03;;
76171;SDS011;64929;51.178;4.138;2023-02-13T11:32:16;15.90;;;6.97;;
76171;SDS011;64929;51.178;4.138;2023-02-13T11:40:51;13.45;;;6.97;;
76171;SDS011;64929;51.178;4.138;2023-02-13T11:43:29;14.75;;;7.00;;
76171;SDS011;64929;51.178;4.138;2023-02-13T11:46:06;16.63;;;7.60;;
76171;SDS011;64929;51.178;4.138;2023-02-13T11:48:54;15.98;;;7.47;;
76171;SDS011;64929;51.178;4.138;2023-02-13T11:54:03;13.85;;;7.65;;
76171;SDS011;64929;51.178;4.138;2023-02-13T11:56:38;16.50;;;7.57;;
76171;SDS011;64929;51.178;4.138;2023-02-13T11:59:15;14.30;;;7.53;;
76171;SDS011;64929;51.178;4.138;2023-02-13T12:01:41;14.23;;;7.13;;
76171;SDS011;64929;51.178;4.138;2023-02-13T12:04:15;11.95;;;7.03;;
76171;SDS011;64929;51.178;4.138;2023-02-13T12:06:58;14.10;;;6.78;;
76171;SDS011;64929;51.178;4.138;2023-02-13T12:09:49;13.32;;;7.22;;
76171;SDS011;64929;51.178;4.138;2023-02-13T12:12:34;11.90;;;6.82;;
76171;SDS011;64929;51.178;4.138;2023-02-13T12:15:13;11.70;;;5.85;;
76171;SDS011;64929;51.178;4.138;2023-02-13T12:17:42;12.68;;;6.25;;
76171;SDS011;64929;51.178;4.138;2023-02-13T12:20:14;9.73;;;6.03;;
76171;SDS011;64929;51.178;4.138;2023-02-13T12:30:45;11.50;;;6.70;;
76171;SDS011;64929;51.178;4.138;2023-02-13T12:36:01;12.88;;;6.57;;
76171;SDS011;64929;51.178;4.138;2023-02-13T13:21:55;16.63;;;7.43;;
76171;SDS011;64929;51.178;4.138;2023-02-13T13:27:19;14.90;;;7.63;;
76171;SDS011;64929;51.178;4.138;2023-02-13T13:29:58;13.25;;;7.63;;
76171;SDS011;64929;51.178;4.138;2023-02-13T13:32:28;13.55;;;7.72;;
76171;SDS011;64929;51.178;4.138;2023-02-13T13:34:56;16.05;;;7.05;;
76171;SDS011;64929;51.178;4.138;2023-02-13T13:42:41;14.60;;;7.60;;
76171;SDS011;64929;51.178;4.138;2023-02-13T13:45:29;14.25;;;7.78;;
76171;SDS011;64929;51.178;4.138;2023-02-13T13:51:04;16.17;;;8.38;;
76171;SDS011;64929;51.178;4.138;2023-02-13T13:53:31;16.23;;;8.02;;
76171;SDS011;64929;51.178;4.138;2023-02-13T13:56:01;16.35;;;8.00;;
76171;SDS011;64929;51.178;4.138;2023-02-13T14:04:00;14.15;;;7.50;;
76171;SDS011;64929;51.178;4.138;2023-02-13T14:09:35;10.70;;;6.68;;
76171;SDS011;64929;51.178;4.138;2023-02-13T14:14:53;14.23;;;6.93;;
76171;SDS011;64929;51.178;4.138;2023-02-13T14:22:54;15.75;;;7.18;;
76171;SDS011;64929;51.178;4.138;2023-02-13T14:25:24;15.00;;;7.80;;
76171;SDS011;64929;51.178;4.138;2023-02-13T14:27:55;14.45;;;7.10;;
76171;SDS011;64929;51.178;4.138;2023-02-13T14:32:56;14.85;;;7.45;;
76171;SDS011;64929;51.178;4.138;2023-02-13T14:35:28;13.65;;;7.07;;
76171;SDS011;64929;51.178;4.138;2023-02-13T14:37:57;13.73;;;7.25;;
76171;SDS011;64929;51.178;4.138;2023-02-13T14:40:31;13.52;;;6.88;;
76171;SDS011;64929;51.178;4.138;2023-02-13T14:43:26;13.80;;;6.60;;
76171;SDS011;64929;51.178;4.138;2023-02-13T14:46:01;11.48;;;6.50;;
76171;SDS011;64929;51.178;4.138;2023-02-13T14:48:54;12.27;;;6.70;;
76171;SDS011;64929;51.178;4.138;2023-02-13T14:51:26;13.52;;;6.75;;
76171;SDS011;64929;51.178;4.138;2023-02-13T14:56:50;13.48;;;6.80;;
76171;SDS011;64929;51.178;4.138;2023-02-13T14:59:20;15.88;;;7.60;;
76171;SDS011;64929;51.178;4.138;2023-02-13T15:01:56;12.70;;;6.65;;
76171;SDS011;64929;51.178;4.138;2023-02-13T15:04:29;12.38;;;6.95;;
76171;SDS011;64929;51.178;4.138;2023-02-13T15:07:03;12.88;;;6.25;;
76171;SDS011;64929;51.178;4.138;2023-02-13T15:09:33;24.45;;;6.63;;
76171;SDS011;64929;51.178;4.138;2023-02-13T15:12:24;12.30;;;6.95;;
76171;SDS011;64929;51.178;4.138;2023-02-13T15:14:52;11.45;;;6.78;;
76171;SDS011;64929;51.178;4.138;2023-02-13T15:17:21;11.82;;;5.63;;
76171;SDS011;64929;51.178;4.138;2023-02-13T15:19:52;11.68;;;5.82;;
76171;SDS011;64929;51.178;4.138;2023-02-13T15:22:21;12.63;;;5.85;;
76171;SDS011;64929;51.178;4.138;2023-02-13T15:24:59;10.82;;;5.82;;
76171;SDS011;64929;51.178;4.138;2023-02-13T15:27:28;9.60;;;5.80;;
76171;SDS011;64929;51.178;4.138;2023-02-13T15:29:57;11.07;;;5.50;;
76171;SDS011;64929;51.178;4.138;2023-02-13T15:32:31;8.65;;;4.63;;
76171;SDS011;64929;51.178;4.138;2023-02-13T15:35:00;11.27;;;5.63;;
76171;SDS011;64929;51.178;4.138;2023-02-13T15:37:34;9.38;;;5.25;;
76171;SDS011;64929;51.178;4.138;2023-02-13T15:40:21;9.82;;;5.45;;
76171;SDS011;64929;51.178;4.138;2023-02-13T15:42:48;8.48;;;4.95;;
76171;SDS011;64929;51.178;4.138;2023-02-13T15:45:17;9.52;;;5.53;;
76171;SDS011;64929;51.178;4.138;2023-02-13T15:47:44;8.18;;;4.88;;
76171;SDS011;64929;51.178;4.138;2023-02-13T15:50:23;9.38;;;5.47;;
76171;SDS011;64929;51.178;4.138;2023-02-13T15:52:55;9.23;;;5.13;;
76171;SDS011;64929;51.178;4.138;2023-02-13T15:55:23;11.63;;;5.57;;
76171;SDS011;64929;51.178;4.138;2023-02-13T15:57:52;11.75;;;5.68;;
76171;SDS011;64929;51.178;4.138;2023-02-13T16:02:57;11.55;;;5.72;;
76171;SDS011;64929;51.178;4.138;2023-02-13T16:05:26;10.98;;;5.20;;
76171;SDS011;64929;51.178;4.138;2023-02-13T16:08:02;16.52;;;5.43;;
76171;SDS011;64929;51.178;4.138;2023-02-13T16:13:56;10.30;;;5.20;;
76171;SDS011;64929;51.178;4.138;2023-02-13T16:16:54;7.97;;;5.13;;
76171;SDS011;64929;51.178;4.138;2023-02-13T16:22:17;11.50;;;5.10;;
76171;SDS011;64929;51.178;4.138;2023-02-13T16:27:39;13.75;;;5.90;;
76171;SDS011;64929;51.178;4.138;2023-02-13T16:33:10;9.32;;;5.38;;
76171;SDS011;64929;51.178;4.138;2023-02-13T16:35:38;13.55;;;7.03;;
76171;SDS011;64929;51.178;4.138;2023-02-13T16:41:00;15.07;;;6.70;;
76171;SDS011;64929;51.178;4.138;2023-02-13T16:48:39;12.77;;;5.82;;
76171;SDS011;64929;51.178;4.138;2023-02-13T16:51:06;10.90;;;5.97;;
76171;SDS011;64929;51.178;4.138;2023-02-13T16:53:32;14.43;;;6.57;;
76171;SDS011;64929;51.178;4.138;2023-02-13T16:56:00;18.23;;;6.15;;
76171;SDS011;64929;51.178;4.138;2023-02-13T16:58:29;10.90;;;6.10;;
76171;SDS011;64929;51.178;4.138;2023-02-13T17:00:55;12.02;;;5.43;;
76171;SDS011;64929;51.178;4.138;2023-02-13T17:03:21;8.75;;;4.70;;
76171;SDS011;64929;51.178;4.138;2023-02-13T17:05:47;11.50;;;5.55;;
76171;SDS011;64929;51.178;4.138;2023-02-13T17:08:13;11.52;;;6.28;;
76171;SDS011;64929;51.178;4.138;2023-02-13T17:10:39;13.73;;;5.57;;
76171;SDS011;64929;51.178;4.138;2023-02-13T17:15:33;14.10;;;6.97;;
76171;SDS011;64929;51.178;4.138;2023-02-13T17:17:59;13.13;;;6.25;;
76171;SDS011;64929;51.178;4.138;2023-02-13T17:20:26;15.13;;;6.22;;
76171;SDS011;64929;51.178;4.138;2023-02-13T17:22:54;12.35;;;6.70;;
76171;SDS011;64929;51.178;4.138;2023-02-13T17:25:25;12.05;;;6.15;;
76171;SDS011;64929;51.178;4.138;2023-02-13T17:27:54;13.50;;;5.78;;
76171;SDS011;64929;51.178;4.138;2023-02-13T17:30:29;11.32;;;6.43;;
76171;SDS011;64929;51.178;4.138;2023-02-13T17:32:57;12.18;;;6.78;;
76171;SDS011;64929;51.178;4.138;2023-02-13T17:35:24;12.50;;;7.03;;
76171;SDS011;64929;51.178;4.138;2023-02-13T17:37:50;13.82;;;7.15;;
76171;SDS011;64929;51.178;4.138;2023-02-13T17:40:17;14.02;;;6.80;;
76171;SDS011;64929;51.178;4.138;2023-02-13T17:42:45;13.05;;;6.95;;
76171;SDS011;64929;51.178;4.138;2023-02-13T17:45:15;11.93;;;7.32;;
76171;SDS011;64929;51.178;4.138;2023-02-13T17:47:43;16.08;;;7.18;;
76171;SDS011;64929;51.178;4.138;2023-02-13T17:50:08;14.32;;;7.50;;
76171;SDS011;64929;51.178;4.138;2023-02-13T17:52:35;15.95;;;7.55;;
76171;SDS011;64929;51.178;4.138;2023-02-13T17:55:01;14.02;;;7.55;;
76171;SDS011;64929;51.178;4.138;2023-02-13T17:57:27;15.95;;;7.45;;
76171;SDS011;64929;51.178;4.138;2023-02-13T17:59:53;13.35;;;7.60;;
76171;SDS011;64929;51.178;4.138;2023-02-13T18:02:20;16.60;;;8.13;;
76171;SDS011;64929;51.178;4.138;2023-02-13T18:04:48;12.63;;;7.25;;
76171;SDS011;64929;51.178;4.138;2023-02-13T18:07:15;17.50;;;7.28;;
76171;SDS011;64929;51.178;4.138;2023-02-13T18:09:43;18.48;;;7.93;;
76171;SDS011;64929;51.178;4.138;2023-02-13T18:12:16;16.33;;;7.50;;
76171;SDS011;64929;51.178;4.138;2023-02-13T18:14:47;13.95;;;8.10;;
76171;SDS011;64929;51.178;4.138;2023-02-13T18:17:15;18.02;;;7.80;;
76171;SDS011;64929;51.178;4.138;2023-02-13T18:19:41;14.73;;;8.00;;